Terminal Aerodrome Forecast
Issued by NWS

Home | Current Version | Previous Version | Text Only | Print | Product List | Glossary On
Versions: 1 2 3 4 5 6 7 8 9 10 11 12 13 14 15 16 17
000
FTUS43 KGRB 070149 AAB
TAFATW
TAF AMD
KATW 070149Z 0702/0724 34012G20KT 5SM -SHRA BR BKN012
     FM070500 34012G18KT 6SM -SHRA BR BKN012
     FM070800 34011KT P6SM SCT015 OVC030
     FM071400 36011KT P6SM SCT030=

USA.gov is the U.S. government's official web portal to all federal, state and local government web resources and services.